Time;durP1;ratioP1;P1;durP2;ratioP2;P2;SDS_P1;SDS_P2;PMS_P1;PMS_P2;Temp;Humidity;BMP_temperature;BMP_pressure;BME280_temperature;BME280_humidity;BME280_pressure;Samples;Min_cycle;Max_cycle;Signal;HPM_P1;HPM_P2
2022/05/12 00:00:50;;;;;;;10.77;2.63;;;;;;;12.30;100.00;100559.53;4840220;29;20045;-79
2022/05/12 00:03:19;;;;;;;13.75;3.53;;;;;;;12.50;100.00;100582.91;4841417;29;20082;-79
2022/05/12 00:05:45;;;;;;;16.33;3.45;;;;;;;12.51;100.00;100590.63;4847950;29;20049;-77
2022/05/12 00:08:12;;;;;;;18.42;3.63;;;;;;;12.45;100.00;100594.75;4844979;29;20542;-79
2022/05/12 00:10:39;;;;;;;16.45;3.47;;;;;;;12.42;100.00;100579.28;4851976;29;20044;-78
2022/05/12 00:13:05;;;;;;;16.35;3.65;;;;;;;12.39;100.00;100570.88;4861758;29;20033;-80
2022/05/12 00:15:33;;;;;;;14.98;3.40;;;;;;;12.43;100.00;100583.56;4863381;29;20041;-78
2022/05/12 00:18:03;;;;;;;17.08;3.45;;;;;;;12.41;100.00;100574.16;4856288;29;20037;-80
2022/05/12 00:20:31;;;;;;;16.45;3.35;;;;;;;12.31;100.00;100566.44;4855960;29;20089;-79
2022/05/12 00:23:09;;;;;;;15.93;3.58;;;;;;;12.24;100.00;100558.38;4853621;29;20030;-79
2022/05/12 00:25:35;;;;;;;14.30;3.60;;;;;;;12.33;100.00;100555.75;4854750;29;20030;-78
2022/05/12 00:28:00;;;;;;;16.30;3.50;;;;;;;12.35;100.00;100559.03;4857192;29;20049;-79
2022/05/12 00:30:26;;;;;;;19.55;3.83;;;;;;;12.35;100.00;100559.03;4846961;29;20080;-78
2022/05/12 00:32:51;;;;;;;17.83;3.80;;;;;;;12.29;100.00;100560.50;4854816;29;20047;-80
2022/05/12 00:35:17;;;;;;;11.52;3.60;;;;;;;12.25;100.00;100556.56;4858223;29;20777;-81
2022/05/12 00:37:43;;;;;;;14.32;3.33;;;;;;;12.20;100.00;100549.16;4862882;29;20096;-79
2022/05/12 00:40:12;;;;;;;15.02;3.63;;;;;;;12.34;100.00;100560.84;4855576;29;20189;-80
2022/05/12 00:42:51;;;;;;;17.95;4.25;;;;;;;12.36;100.00;100548.38;4861146;29;20035;-79
2022/05/12 00:45:17;;;;;;;12.00;3.22;;;;;;;12.33;100.00;100547.88;4861674;29;20037;-79
2022/05/12 00:47:43;;;;;;;20.08;3.90;;;;;;;12.32;100.00;100540.94;4835408;29;20049;-78
2022/05/12 00:50:09;;;;;;;13.85;3.65;;;;;;;12.27;100.00;100533.56;4863192;29;20045;-80
2022/05/12 00:52:34;;;;;;;14.93;3.63;;;;;;;12.26;100.00;100538.00;4869911;29;20044;-80
2022/05/12 00:55:14;;;;;;;15.98;3.50;;;;;;;12.34;100.00;100552.97;4863826;29;20501;-80
2022/05/12 00:57:45;;;;;;;17.00;3.55;;;;;;;12.37;100.00;100550.00;4866479;29;20457;-79
2022/05/12 01:00:13;;;;;;;19.20;3.45;;;;;;;12.32;100.00;100554.09;4845265;29;20052;-77
2022/05/12 01:02:39;;;;;;;20.25;4.57;;;;;;;12.25;100.00;100551.31;4860674;29;20112;-80
2022/05/12 01:05:06;;;;;;;16.63;3.65;;;;;;;12.35;100.00;100557.22;4856023;29;20093;-79
2022/05/12 01:07:32;;;;;;;13.32;3.70;;;;;;;12.39;100.00;100558.53;4862695;29;20037;-79
2022/05/12 01:10:00;;;;;;;16.40;3.95;;;;;;;12.37;100.00;100557.06;4835243;29;20040;-80
2022/05/12 01:12:26;;;;;;;15.05;3.28;;;;;;;12.37;100.00;100559.69;4853304;29;20048;-78
2022/05/12 01:14:52;;;;;;;19.33;4.18;;;;;;;12.33;100.00;100558.38;4862091;29;20041;-80
2022/05/12 01:17:19;;;;;;;13.32;3.60;;;;;;;12.38;100.00;100564.78;4857935;29;20064;-79
2022/05/12 01:19:46;;;;;;;14.88;3.75;;;;;;;12.43;100.00;100569.56;4860579;29;20136;-79
2022/05/12 01:22:34;;;;;;;13.57;4.05;;;;;;;12.40;100.00;100568.09;4867164;29;20036;-80
2022/05/12 01:24:59;;;;;;;24.67;4.45;;;;;;;12.42;100.00;100571.38;4859406;29;20041;-80
2022/05/12 01:27:29;;;;;;;12.90;3.90;;;;;;;12.40;100.00;100573.34;4854538;29;20524;-80
2022/05/12 01:29:57;;;;;;;15.80;3.88;;;;;;;12.49;100.00;100568.09;4854724;29;20040;-80
2022/05/12 01:32:27;;;;;;;13.63;4.10;;;;;;;12.47;100.00;100570.91;4853030;29;20046;-80
2022/05/12 01:34:54;;;;;;;10.95;3.50;;;;;;;12.37;100.00;100567.59;4840886;29;20037;-79
2022/05/12 01:37:20;;;;;;;12.93;3.75;;;;;;;12.39;100.00;100569.06;4837074;29;20319;-79
2022/05/12 01:39:46;;;;;;;13.13;4.18;;;;;;;12.54;100.00;100568.44;4861365;29;20037;-77
2022/05/12 01:42:12;;;;;;;9.93;3.40;;;;;;;12.47;100.00;100568.28;4850749;29;20045;-81
2022/05/12 01:44:39;;;;;;;11.48;3.70;;;;;;;12.50;100.00;100580.28;4876671;29;20057;-79
2022/05/12 01:47:06;;;;;;;14.63;4.13;;;;;;;12.62;100.00;100582.41;4855429;29;20128;-78
2022/05/12 01:49:32;;;;;;;10.45;3.58;;;;;;;12.55;100.00;100575.34;4869865;29;20096;-80
2022/05/12 01:51:59;;;;;;;7.40;3.00;;;;;;;12.53;100.00;100578.13;4853102;29;20443;-79
2022/05/12 01:54:26;;;;;;;10.63;3.40;;;;;;;12.42;100.00;100575.81;4845721;29;20048;-79
2022/05/12 01:56:52;;;;;;;16.13;4.25;;;;;;;12.50;100.00;100593.41;4856006;29;20094;-80
2022/05/12 01:59:22;;;;;;;11.85;4.10;;;;;;;12.36;100.00;100584.38;4873728;29;20041;-80
2022/05/12 02:01:48;;;;;;;10.52;3.42;;;;;;;12.21;100.00;100578.91;4874697;29;20032;-81
2022/05/12 02:04:15;;;;;;;12.43;4.05;;;;;;;12.21;100.00;100592.06;4859163;29;20215;-81
2022/05/12 02:06:42;;;;;;;12.68;3.65;;;;;;;12.20;100.00;100590.41;4878911;29;20105;-80
2022/05/12 02:09:08;;;;;;;9.32;3.58;;;;;;;12.24;100.00;100594.34;4874058;29;20025;-79
2022/05/12 02:11:34;;;;;;;8.20;3.55;;;;;;;12.27;100.00;100588.78;4877319;29;20033;-79
2022/05/12 02:14:00;;;;;;;13.15;3.03;;;;;;;12.36;100.00;100598.34;4834449;29;20072;-81
2022/05/12 02:16:26;;;;;;;12.02;2.80;;;;;;;12.47;100.00;100591.94;4859284;29;20137;-80
2022/05/12 02:18:53;;;;;;;10.10;2.50;;;;;;;12.41;100.00;100600.47;4853222;29;20041;-81
2022/05/12 02:21:19;;;;;;;5.40;2.45;;;;;;;12.44;100.00;100603.59;4868173;29;20033;-80
2022/05/12 02:23:44;;;;;;;13.07;2.53;;;;;;;12.48;100.00;100613.81;4875623;29;20038;-80
2022/05/12 02:26:10;;;;;;;10.25;2.17;;;;;;;12.53;100.00;100614.97;4858574;29;20507;-81
2022/05/12 02:28:36;;;;;;;7.65;2.33;;;;;;;12.50;100.00;100623.16;4865425;29;20037;-82
2022/05/12 02:31:02;;;;;;;5.57;1.92;;;;;;;12.57;100.00;100628.63;4858254;29;20141;-78
2022/05/12 02:33:28;;;;;;;12.90;2.55;;;;;;;12.50;100.00;100641.59;4862389;29;20588;-80
2022/05/12 02:35:53;;;;;;;8.60;2.72;;;;;;;12.51;100.00;100637.13;4867424;29;20037;-80
2022/05/12 02:38:19;;;;;;;12.10;2.88;;;;;;;12.46;100.00;100658.69;4873097;29;20413;-80
2022/05/12 02:40:45;;;;;;;6.70;2.33;;;;;;;12.40;100.00;100669.84;4877765;29;20045;-81
2022/05/12 02:43:23;;;;;;;11.77;2.50;;;;;;;12.38;100.00;100698.13;4863443;29;20034;-80
2022/05/12 02:45:58;;;;;;;10.13;2.20;;;;;;;12.05;100.00;100677.78;4865913;29;20041;-81
2022/05/12 02:48:27;;;;;;;5.10;2.10;;;;;;;12.08;100.00;100716.06;4864674;29;20069;-80
2022/05/12 02:50:53;;;;;;;5.63;2.10;;;;;;;12.07;100.00;100728.41;4881731;29;20033;-79
2022/05/12 02:53:19;;;;;;;8.75;2.08;;;;;;;11.93;100.00;100736.84;4879350;29;20044;-80
2022/05/12 02:55:44;;;;;;;6.35;1.60;;;;;;;11.92;100.00;100739.63;4866979;29;20056;-80
2022/05/12 02:58:11;;;;;;;9.63;2.08;;;;;;;11.74;100.00;100766.75;4870984;29;20048;-80
2022/05/12 03:00:37;;;;;;;5.47;1.38;;;;;;;11.57;100.00;100780.78;4867298;29;20037;-82
2022/05/12 03:03:05;;;;;;;7.68;1.50;;;;;;;11.50;100.00;100778.72;4870847;29;20041;-81
2022/05/12 03:05:31;;;;;;;6.53;1.35;;;;;;;11.49;100.00;100805.16;4864117;29;20048;-80
2022/05/12 03:07:57;;;;;;;5.28;1.40;;;;;;;11.48;100.00;100801.69;4865285;29;20136;-80
2022/05/12 03:10:23;;;;;;;5.65;1.33;;;;;;;11.48;100.00;100812.19;4865188;29;20086;-80
2022/05/12 03:12:50;;;;;;;5.55;1.30;;;;;;;11.28;100.00;100805.44;4874399;29;20112;-78
2022/05/12 03:15:17;;;;;;;3.88;1.50;;;;;;;11.30;100.00;100835.00;4875830;29;20069;-82
2022/05/12 03:17:44;;;;;;;4.80;1.60;;;;;;;11.20;100.00;100840.31;4872444;29;20043;-81
2022/05/12 03:20:16;;;;;;;4.30;1.50;;;;;;;11.23;100.00;100844.47;4859987;29;20034;-81
2022/05/12 03:22:42;;;;;;;3.05;1.60;;;;;;;11.23;100.00;100854.97;4864273;29;20045;-79
2022/05/12 03:25:10;;;;;;;4.70;2.05;;;;;;;11.18;100.00;100862.47;4868887;29;20042;-78
2022/05/12 03:27:36;;;;;;;5.55;1.55;;;;;;;11.13;100.00;100859.44;4844562;29;20036;-80
2022/05/12 03:30:04;;;;;;;4.68;1.50;;;;;;;11.20;100.00;100876.25;4846898;29;20508;-80
2022/05/12 03:32:30;;;;;;;4.05;1.60;;;;;;;11.09;100.00;100866.78;4870925;29;20046;-79
2022/05/12 03:34:56;;;;;;;5.72;1.50;;;;;;;11.15;100.00;100889.84;4869116;29;20385;-81
2022/05/12 03:37:21;;;;;;;3.97;1.38;;;;;;;11.16;100.00;100885.41;4874134;29;20034;-81
2022/05/12 03:39:47;;;;;;;5.80;1.50;;;;;;;11.10;100.00;100903.38;4854835;29;20038;-81
2022/05/12 03:42:15;;;;;;;4.22;1.60;;;;;;;11.03;100.00;100904.13;4861467;29;20162;-80
2022/05/12 03:44:46;;;;;;;8.52;1.48;;;;;;;10.95;100.00;100902.22;4863506;29;20046;-78
2022/05/12 03:47:19;;;;;;;8.32;1.77;;;;;;;11.02;100.00;100937.44;4868693;29;20052;-78
2022/05/12 03:49:50;;;;;;;5.97;1.50;;;;;;;11.00;100.00;100930.66;4876903;29;20037;-79
2022/05/12 03:52:17;;;;;;;7.07;1.55;;;;;;;10.86;100.00;100937.19;4883896;29;20041;-80
2022/05/12 03:54:43;;;;;;;7.85;1.25;;;;;;;10.81;100.00;100944.66;4868014;29;20139;-79
2022/05/12 03:57:10;;;;;;;5.28;1.38;;;;;;;10.73;100.00;100941.94;4859700;29;20746;-79
2022/05/12 03:59:38;;;;;;;5.68;1.88;;;;;;;10.86;100.00;100951.13;4836418;29;20038;-80
2022/05/12 04:02:09;;;;;;;10.65;1.88;;;;;;;10.86;100.00;100961.63;4856518;29;20114;-80
2022/05/12 04:04:35;;;;;;;9.77;1.90;;;;;;;10.83;100.00;100956.69;4853658;29;20041;-80
2022/05/12 04:07:01;;;;;;;4.90;1.63;;;;;;;10.86;100.00;100971.31;4857405;29;20053;-78
2022/05/12 04:09:27;;;;;;;9.88;1.80;;;;;;;10.97;100.00;100975.56;4850048;29;20118;-78
2022/05/12 04:11:53;;;;;;;5.15;1.65;;;;;;;10.97;100.00;100980.81;4872803;29;20045;-79
2022/05/12 04:14:19;;;;;;;6.18;2.03;;;;;;;10.94;100.00;100981.09;4847210;29;20029;-79
2022/05/12 04:16:45;;;;;;;10.50;1.90;;;;;;;10.91;100.00;101001.41;4872190;29;20516;-82
2022/05/12 04:19:12;;;;;;;13.63;2.10;;;;;;;10.90;100.00;100997.13;4847171;29;20293;-79
2022/05/12 04:21:38;;;;;;;5.82;1.67;;;;;;;10.90;100.00;101012.88;4871881;29;20029;-81
2022/05/12 04:24:07;;;;;;;10.45;1.90;;;;;;;10.97;100.00;101026.25;4873110;29;20100;-80
2022/05/12 04:26:35;;;;;;;5.40;1.92;;;;;;;10.96;100.00;101042.16;4879877;29;20520;-81
2022/05/12 04:29:01;;;;;;;7.03;1.88;;;;;;;10.88;100.00;101021.84;4844973;29;20052;-79
2022/05/12 04:31:27;;;;;;;6.05;1.73;;;;;;;11.04;100.00;101045.72;4867384;29;20041;-80
2022/05/12 04:36:36;;;;;;;8.43;1.80;;;;;;;11.06;100.00;101056.09;4863079;29;20048;-80
2022/05/12 04:39:04;;;;;;;9.32;2.05;;;;;;;10.98;100.00;101055.94;4863568;29;20041;-79
2022/05/12 04:41:30;;;;;;;9.25;1.88;;;;;;;11.00;100.00;101067.13;4856778;29;20291;-82
2022/05/12 04:43:55;;;;;;;15.05;2.20;;;;;;;11.05;100.00;101063.13;4866732;29;20037;-79
2022/05/12 04:46:22;;;;;;;8.55;2.30;;;;;;;11.16;100.00;101083.13;4853045;29;20508;-81
2022/05/12 04:48:47;;;;;;;8.10;2.55;;;;;;;11.23;100.00;101086.03;4870069;29;20049;-78
2022/05/12 04:51:13;;;;;;;12.95;2.88;;;;;;;11.12;100.00;101091.44;4866525;29;20044;-82
2022/05/12 04:53:39;;;;;;;7.93;2.25;;;;;;;11.09;100.00;101092.53;4857879;29;20131;-79
2022/05/12 04:56:05;;;;;;;16.83;2.55;;;;;;;10.97;100.00;101081.38;4846860;29;20056;-81
2022/05/12 04:58:30;;;;;;;10.05;2.28;;;;;;;10.99;100.00;101097.00;4864223;29;20116;-79
2022/05/12 05:00:56;;;;;;;8.80;2.50;;;;;;;11.05;100.00;101120.03;4868037;29;20075;-82
2022/05/12 05:03:22;;;;;;;9.73;2.80;;;;;;;10.99;100.00;101120.63;4858246;29;20041;-81
2022/05/12 05:05:49;;;;;;;11.73;2.33;;;;;;;11.06;100.00;101116.47;4877355;29;20573;-80
2022/05/12 05:08:18;;;;;;;13.85;2.50;;;;;;;11.12;100.00;101138.69;4844209;29;20129;-83
2022/05/12 05:10:44;;;;;;;9.50;2.70;;;;;;;11.13;100.00;101135.91;4852578;29;20460;-79
2022/05/12 05:13:10;;;;;;;10.68;2.58;;;;;;;11.26;100.00;101148.75;4861996;29;20041;-78
2022/05/12 05:15:36;;;;;;;9.68;2.50;;;;;;;11.24;100.00;101159.38;4842950;29;20105;-79
2022/05/12 05:18:03;;;;;;;8.95;2.35;;;;;;;11.06;100.00;101150.59;4850420;29;20516;-78
2022/05/12 05:20:30;;;;;;;9.40;2.58;;;;;;;11.06;100.00;101166.34;4857008;29;20128;-78
2022/05/12 05:22:56;;;;;;;6.22;2.40;;;;;;;10.90;100.00;101146.72;4884463;29;20045;-79
2022/05/12 05:25:23;;;;;;;9.23;2.35;;;;;;;10.86;100.00;101155.00;4858573;29;20041;-80
2022/05/12 05:27:51;;;;;;;8.00;2.17;;;;;;;10.83;100.00;101156.13;4868629;29;20657;-80
2022/05/12 05:30:19;;;;;;;11.38;2.78;;;;;;;10.86;100.00;101165.50;4861463;29;20102;-79
2022/05/12 05:32:46;;;;;;;11.77;2.95;;;;;;;10.88;100.00;101156.53;4867773;29;20085;-78
2022/05/12 05:35:12;;;;;;;11.18;2.50;;;;;;;11.00;100.00;101165.09;4858189;29;20053;-79
2022/05/12 05:37:39;;;;;;;11.95;2.80;;;;;;;11.08;100.00;101165.22;4860487;29;20048;-79
2022/05/12 05:40:07;;;;;;;13.77;2.95;;;;;;;11.22;100.00;101166.59;4853237;29;20069;-78
2022/05/12 05:42:33;;;;;;;12.20;2.65;;;;;;;11.35;100.00;101186.47;4863559;29;20040;-77
2022/05/12 05:44:59;;;;;;;11.13;2.50;;;;;;;11.32;100.00;101198.09;4869233;29;20049;-80
2022/05/12 05:47:25;;;;;;;11.10;2.50;;;;;;;11.46;100.00;101196.81;4864990;29;20049;-78
2022/05/12 05:49:51;;;;;;;11.95;2.38;;;;;;;11.69;100.00;101198.16;4856643;29;20242;-82
2022/05/12 05:55:00;;;;;;;16.65;2.65;;;;;;;12.00;100.00;101213.72;4872621;29;20225;-80
2022/05/12 05:57:30;;;;;;;8.88;2.28;;;;;;;12.13;100.00;101228.34;4861453;29;20097;-78
2022/05/12 05:59:58;;;;;;;10.27;2.13;;;;;;;12.09;100.00;101219.91;4860993;29;20037;-80
2022/05/12 06:02:24;;;;;;;9.88;2.33;;;;;;;12.14;100.00;101222.09;4860212;29;20466;-80
2022/05/12 06:04:50;;;;;;;10.18;2.42;;;;;;;12.27;100.00;101231.31;4856892;29;20265;-80
2022/05/12 06:07:16;;;;;;;10.38;1.90;;;;;;;12.33;100.00;101240.44;4842114;29;20496;-79
2022/05/12 06:09:42;;;;;;;12.60;2.53;;;;;;;12.29;100.00;101236.44;4873930;29;20039;-79
2022/05/12 06:12:09;;;;;;;10.90;2.03;;;;;;;12.40;100.00;101254.66;4857365;29;20037;-80
2022/05/12 06:14:35;;;;;;;8.23;2.17;;;;;;;12.60;100.00;101260.66;4868454;29;20474;-79
2022/05/12 06:17:01;;;;;;;8.95;2.13;;;;;;;12.76;100.00;101269.72;4870262;29;20116;-79
2022/05/12 06:19:26;;;;;;;11.13;1.92;;;;;;;12.87;100.00;101273.94;4873314;29;20053;-78
2022/05/12 06:21:52;;;;;;;8.35;2.03;;;;;;;12.80;100.00;101274.50;4842570;29;20104;-80
2022/05/12 06:24:18;;;;;;;9.77;2.00;;;;;;;12.69;100.00;101282.63;4863149;29;20040;-81
2022/05/12 06:26:43;;;;;;;11.50;2.00;;;;;;;12.91;100.00;101275.28;4842823;29;20038;-79
2022/05/12 06:29:09;;;;;;;12.00;2.22;;;;;;;13.09;100.00;101272.66;4860806;29;20780;-79
2022/05/12 06:31:35;;;;;;;10.65;1.90;;;;;;;12.93;100.00;101283.88;4858520;29;20065;-80
2022/05/12 06:34:00;;;;;;;12.45;2.30;;;;;;;12.95;100.00;101288.00;4875038;29;20084;-79
2022/05/12 06:36:30;;;;;;;16.05;1.98;;;;;;;12.87;100.00;101302.91;4861015;29;20049;-78
2022/05/12 06:38:55;;;;;;;7.80;1.92;;;;;;;12.66;100.00;101314.50;4866098;29;20052;-79
2022/05/12 06:41:21;;;;;;;12.77;2.38;;;;;;;12.90;100.00;101302.59;4871161;29;20034;-78
2022/05/12 06:43:47;;;;;;;7.55;1.70;;;;;;;13.18;98.02;101309.47;4854968;29;20047;-79
2022/05/12 06:46:15;;;;;;;8.55;1.60;;;;;;;13.21;99.61;101324.16;4860226;29;20052;-79
2022/05/12 06:48:49;;;;;;;8.80;1.90;;;;;;;13.11;96.80;101324.22;4850052;29;20141;-79
2022/05/12 06:51:15;;;;;;;8.13;1.92;;;;;;;12.96;97.94;101326.53;4871201;29;20471;-80
2022/05/12 06:53:42;;;;;;;9.02;1.90;;;;;;;13.04;99.15;101328.44;4837903;29;20532;-79
2022/05/12 06:56:09;;;;;;;7.43;2.03;;;;;;;13.24;100.00;101326.47;4856794;29;20099;-79
2022/05/12 06:58:36;;;;;;;10.98;1.85;;;;;;;13.43;97.18;101336.09;4859647;29;20159;-79
2022/05/12 07:01:02;;;;;;;5.35;1.60;;;;;;;13.58;95.13;101339.00;4860941;29;20042;-79
2022/05/12 07:03:29;;;;;;;9.23;1.63;;;;;;;13.77;92.54;101340.66;4872770;29;20048;-79
2022/05/12 07:05:55;;;;;;;6.57;2.00;;;;;;;13.74;93.59;101346.25;4845954;29;20037;-80
2022/05/12 07:08:21;;;;;;;6.85;1.70;;;;;;;13.68;93.39;101342.41;4841040;29;20033;-79
2022/05/12 07:10:46;;;;;;;7.28;1.70;;;;;;;13.78;94.45;101356.31;4871928;29;20044;-79
2022/05/12 07:13:18;;;;;;;5.50;1.85;;;;;;;13.85;92.13;101363.63;4862572;29;20455;-81
2022/05/12 07:15:44;;;;;;;8.40;1.83;;;;;;;13.87;94.83;101373.03;4868786;29;20036;-78
2022/05/12 07:18:10;;;;;;;9.75;2.15;;;;;;;13.91;94.49;101368.28;4851948;29;20754;-79
2022/05/12 07:28:48;;;;;;;7.68;1.98;;;;;;;14.48;89.61;101392.41;4852562;29;20033;-80
2022/05/12 07:31:14;;;;;;;10.07;1.85;;;;;;;14.74;86.65;101400.34;4861217;29;20128;-80
2022/05/12 07:33:41;;;;;;;6.32;2.03;;;;;;;14.88;90.25;101408.66;4858636;29;20128;-79
2022/05/12 07:36:12;;;;;;;5.82;1.92;;;;;;;14.75;88.18;101404.66;4850242;29;20037;-81
2022/05/12 07:38:38;;;;;;;8.15;1.80;;;;;;;14.81;89.97;101407.66;4859905;29;20065;-79
2022/05/12 07:41:07;;;;;;;5.63;2.10;;;;;;;14.86;91.77;101411.47;4834044;29;20578;-78
2022/05/12 07:43:33;;;;;;;5.47;1.90;;;;;;;15.12;89.21;101418.50;4865134;29;20108;-79
2022/05/12 07:46:00;;;;;;;9.30;2.10;;;;;;;14.76;87.63;101421.31;4857689;29;20029;-77
2022/05/12 07:48:25;;;;;;;6.88;2.08;;;;;;;14.55;87.30;101411.91;4868681;29;20033;-77
2022/05/12 07:50:51;;;;;;;7.97;1.98;;;;;;;14.79;91.01;101428.94;4876389;29;20049;-78
2022/05/12 07:53:18;;;;;;;5.47;1.67;;;;;;;15.18;88.41;101431.06;4847112;29;20164;-82
2022/05/12 07:55:44;;;;;;;12.40;2.05;;;;;;;15.22;86.53;101429.78;4863343;29;20112;-81
2022/05/12 07:58:11;;;;;;;6.82;1.95;;;;;;;15.45;86.18;101445.84;4865500;29;20041;-81
2022/05/12 08:00:38;;;;;;;5.70;1.50;;;;;;;15.55;83.66;101448.34;4866924;29;20113;-79
2022/05/12 08:03:04;;;;;;;7.15;1.70;;;;;;;15.66;85.71;101455.97;4854204;29;20043;-77
2022/05/12 08:05:30;;;;;;;5.25;1.80;;;;;;;15.44;82.23;101446.81;4852381;29;20173;-79
2022/05/12 08:07:55;;;;;;;6.13;1.60;;;;;;;15.32;83.03;101467.44;4857691;29;20298;-81
2022/05/12 08:10:23;;;;;;;7.13;1.67;;;;;;;14.85;86.30;101465.25;4858475;29;20060;-80
2022/05/12 08:12:50;;;;;;;5.22;1.63;;;;;;;15.11;87.16;101467.88;4865999;29;20041;-76
2022/05/12 08:15:17;;;;;;;6.03;1.60;;;;;;;15.24;83.74;101471.88;4854668;29;20124;-77
2022/05/12 08:17:43;;;;;;;5.32;1.60;;;;;;;15.34;84.54;101480.50;4859314;29;20041;-77
2022/05/12 08:20:11;;;;;;;6.20;1.40;;;;;;;15.38;84.80;101468.63;4862877;29;20045;-78
2022/05/12 08:22:37;;;;;;;6.93;1.50;;;;;;;15.64;82.03;101473.00;4874386;29;20037;-78
2022/05/12 08:25:04;;;;;;;7.78;1.38;;;;;;;16.07;80.62;101482.50;4854982;29;20033;-76
2022/05/12 08:27:31;;;;;;;5.18;1.30;;;;;;;16.08;81.45;101478.03;4839062;29;20060;-78
2022/05/12 08:29:56;;;;;;;6.38;1.27;;;;;;;15.88;80.70;101475.72;4861086;29;20033;-79
2022/05/12 08:32:22;;;;;;;5.38;1.35;;;;;;;16.09;78.19;101483.19;4854396;29;20064;-78
2022/05/12 08:34:48;;;;;;;9.15;1.70;;;;;;;16.41;79.01;101488.63;4852881;29;20082;-78
2022/05/12 08:37:15;;;;;;;8.55;1.30;;;;;;;16.60;74.99;101493.56;4861001;29;20057;-76
2022/05/12 08:39:43;;;;;;;2.78;0.77;;;;;;;16.91;75.71;101495.53;4867328;29;20094;-79
2022/05/12 08:42:35;;;;;;;6.85;1.35;;;;;;;16.52;72.08;101496.25;4855613;29;20030;-81
2022/05/12 08:45:04;;;;;;;7.28;1.27;;;;;;;16.84;76.42;101494.53;4875792;29;20449;-77
2022/05/12 08:47:38;;;;;;;7.60;1.42;;;;;;;16.74;76.60;101503.50;4847871;29;20750;-81
2022/05/12 08:50:07;;;;;;;7.25;1.38;;;;;;;16.54;75.62;101510.97;4860297;29;20072;-80
2022/05/12 08:52:42;;;;;;;5.60;1.17;;;;;;;16.86;75.33;101506.63;4842829;29;20043;-80
2022/05/12 08:55:18;;;;;;;7.75;1.15;;;;;;;16.71;81.41;101503.81;4862426;29;20029;-79
2022/05/12 08:58:00;;;;;;;5.05;1.10;;;;;;;17.09;78.01;101513.88;4855203;29;20048;-79
2022/05/12 09:00:31;;;;;;;3.67;1.00;;;;;;;17.21;67.86;101511.66;4860102;29;20057;-78
2022/05/12 09:03:17;;;;;;;4.18;0.93;;;;;;;17.56;68.36;101514.84;4838352;29;20043;-80
2022/05/12 09:06:00;;;;;;;6.43;0.90;;;;;;;17.30;70.52;101518.59;4869513;29;20037;-78
2022/05/12 09:08:45;;;;;;;5.60;0.90;;;;;;;16.91;69.50;101516.72;4857008;29;20510;-79
2022/05/12 09:11:42;;;;;;;8.02;0.95;;;;;;;17.23;72.46;101520.28;4861586;29;20461;-80
2022/05/12 09:14:16;;;;;;;3.03;1.10;;;;;;;17.62;69.73;101514.13;4846805;29;20563;-81
2022/05/12 09:16:41;;;;;;;4.93;1.00;;;;;;;17.99;66.44;101510.78;4852861;29;20044;-77
2022/05/12 09:19:14;;;;;;;4.53;0.95;;;;;;;17.60;70.39;101509.00;4855613;29;20037;-79
2022/05/12 09:21:40;;;;;;;4.10;1.02;;;;;;;17.04;72.20;101513.53;4842355;29;20039;-80
2022/05/12 09:24:07;;;;;;;6.68;1.00;;;;;;;16.52;71.00;101510.31;4854704;29;20770;-78
2022/05/12 09:26:35;;;;;;;5.38;1.00;;;;;;;16.74;69.61;101518.53;4864256;29;20104;-79
2022/05/12 09:29:24;;;;;;;4.70;1.25;;;;;;;17.34;68.72;101522.53;4846486;29;20424;-79
2022/05/12 09:32:14;;;;;;;5.57;1.00;;;;;;;17.37;66.53;101518.75;4869317;29;20065;-79
2022/05/12 09:34:43;;;;;;;4.28;0.90;;;;;;;17.83;67.07;101526.78;4843407;29;20067;-78
2022/05/12 09:37:12;;;;;;;7.45;1.08;;;;;;;18.36;64.04;101530.41;4864983;29;20125;-79
2022/05/12 09:39:41;;;;;;;7.35;1.00;;;;;;;18.87;59.19;101524.47;4841093;29;20041;-79
2022/05/12 09:42:15;;;;;;;5.22;0.90;;;;;;;18.65;61.50;101518.22;4855219;29;20037;-78
2022/05/12 09:44:52;;;;;;;5.05;1.23;;;;;;;18.24;61.39;101522.03;4859122;29;20036;-78
2022/05/12 09:47:18;;;;;;;3.72;0.80;;;;;;;18.05;64.00;101522.53;4861397;29;20144;-78
2022/05/12 09:49:46;;;;;;;3.92;0.90;;;;;;;18.25;64.96;101534.34;4873025;29;20912;-78
2022/05/12 09:52:31;;;;;;;5.38;1.13;;;;;;;18.75;64.04;101523.25;4856204;29;20150;-79
2022/05/12 09:55:20;;;;;;;5.93;1.27;;;;;;;18.65;61.53;101534.16;4862633;29;20041;-79
2022/05/12 09:57:48;;;;;;;4.43;1.00;;;;;;;17.70;61.34;101536.13;4851758;29;20048;-78
2022/05/12 10:00:48;;;;;;;7.65;1.20;;;;;;;17.40;67.20;101532.47;4861023;29;20041;-80
2022/05/12 10:09:05;;;;;;;7.07;1.15;;;;;;;17.43;63.72;101531.31;4860094;29;20037;-77
2022/05/12 10:11:38;;;;;;;2.30;1.00;;;;;;;17.50;63.72;101549.00;4856516;29;20049;-76
2022/05/12 10:14:06;;;;;;;5.00;0.90;;;;;;;17.73;63.93;101537.63;4852005;29;20045;-77
2022/05/12 10:16:33;;;;;;;2.97;0.80;;;;;;;17.74;66.85;101535.78;4878889;29;20436;-78
2022/05/12 10:19:16;;;;;;;6.28;1.15;;;;;;;17.70;65.38;101541.44;4874451;29;20037;-78
2022/05/12 10:21:47;;;;;;;6.47;1.20;;;;;;;17.56;64.30;101551.97;4854623;29;20060;-79
2022/05/12 10:24:25;;;;;;;6.97;1.27;;;;;;;17.41;68.37;101542.06;4869821;29;20038;-79
2022/05/12 10:27:13;;;;;;;6.60;1.20;;;;;;;17.51;69.82;101547.16;4865531;29;20081;-79
2022/05/12 10:29:55;;;;;;;7.55;1.10;;;;;;;17.77;65.50;101546.88;4833499;29;20037;-78
2022/05/12 10:32:33;;;;;;;;;;;;;;;18.02;64.49;101549.41;4855411;29;20058;-76
2022/05/12 10:35:13;;;;;;;2.70;0.88;;;;;;;18.69;60.34;101548.72;4852643;29;19916;-78
2022/05/12 10:37:47;;;;;;;3.60;0.60;;;;;;;18.37;62.80;101550.66;4854735;29;20052;-77
2022/05/12 10:40:41;;;;;;;6.10;1.00;;;;;;;17.28;64.46;101544.44;4839265;29;20046;-78
2022/05/12 10:43:39;;;;;;;5.00;1.10;;;;;;;16.79;62.76;101548.00;4862572;29;20037;-77
2022/05/12 10:46:13;;;;;;;5.55;0.73;;;;;;;16.57;67.58;101551.34;4854258;29;20094;-77
2022/05/12 10:48:54;;;;;;;4.28;1.00;;;;;;;16.52;70.37;101563.28;4862800;29;20037;-80
2022/05/12 10:51:29;;;;;;;2.95;0.70;;;;;;;17.49;66.61;101544.69;4858400;29;20108;-79
2022/05/12 10:54:39;;;;;;;5.32;1.15;;;;;;;18.85;63.85;101561.06;4857324;29;20563;-80
2022/05/12 10:57:32;;;;;;;1.55;0.70;;;;;;;19.29;56.13;101551.44;4788339;29;20428;-79
2022/05/12 11:00:32;;;;;;;4.03;0.65;;;;;;;19.65;54.30;101546.19;4859707;29;20045;-78
2022/05/12 11:03:15;;;;;;;4.57;0.85;;;;;;;19.41;56.07;101542.81;4862367;29;20556;-78
2022/05/12 11:05:47;;;;;;;2.40;0.70;;;;;;;18.54;60.32;101539.91;4859447;29;20053;-77
2022/05/12 11:08:19;;;;;;;6.22;0.70;;;;;;;18.29;58.65;101532.97;4863633;29;20045;-79
2022/05/12 11:10:50;;;;;;;3.80;0.80;;;;;;;18.09;59.79;101553.03;4857677;29;20554;-78
2022/05/12 11:13:29;;;;;;;7.30;0.80;;;;;;;18.14;58.70;101557.78;4868713;29;20348;-79
2022/05/12 11:16:00;;;;;;;3.97;0.80;;;;;;;18.53;60.60;101559.50;4857224;29;20041;-78
2022/05/12 11:18:34;;;;;;;4.20;0.80;;;;;;;18.96;55.80;101557.94;4860749;29;20048;-78
2022/05/12 11:21:23;;;;;;;3.67;0.70;;;;;;;19.58;55.17;101558.56;4863436;29;20037;-78
2022/05/12 11:24:11;;;;;;;3.15;0.80;;;;;;;20.13;58.44;101561.66;4870719;29;20032;-77
2022/05/12 11:27:05;;;;;;;6.75;1.00;;;;;;;20.34;55.33;101579.47;4854509;29;20105;-78
2022/05/12 11:30:02;;;;;;;2.40;0.90;;;;;;;20.30;51.68;101568.38;4881768;29;20124;-77
2022/05/12 11:32:55;;;;;;;3.35;0.90;;;;;;;20.52;50.90;101557.72;4855332;29;20074;-76
2022/05/12 11:35:25;;;;;;;4.68;1.10;;;;;;;20.63;48.25;101565.22;4867663;29;20041;-77
2022/05/12 11:37:56;;;;;;;3.78;0.82;;;;;;;20.33;49.30;101562.69;4865337;29;20056;-79
2022/05/12 11:40:41;;;;;;;4.25;0.70;;;;;;;20.06;53.65;101556.28;4842974;29;20052;-78
2022/05/12 11:46:31;;;;;;;4.63;0.75;;;;;;;19.35;51.19;101545.41;4856676;29;20064;-77
2022/05/12 11:49:08;;;;;;;7.78;0.75;;;;;;;19.06;53.90;101560.34;4869412;29;20025;-79
2022/05/12 11:51:57;;;;;;;5.70;1.17;;;;;;;18.45;56.80;101549.75;4857940;29;20046;-75